Thuringia — D5EG7 — position and weather

sailwx.info

Track history (hours):
 
Tides and Currents Weather Stations Pressure Air Temp Water Temp Dewpoint Dewpoint Depression Visibility Wind Speed Wind Dir Waves Ship Positions

Thuringia

Last reported at 2018-Feb-21 01:07 UTC. Time now 2018-Feb-22 16:58 UTC.
Position N 15°44' E 072°51'.

Length 260 m; draft 8.1 m.

Type: Ship. MMSI: 636016073.

Date/timePositionNaut miles runAvg speedWind from/ knotsBaromVisibWave heightAir tempDewpointWater temp
2018-Feb-21 01:07N 15°44' E 072°51'214.9
2018-Feb-21 00:59N 15°46' E 072°51'3415.0
2018-Feb-20 22:44N 16°18' E 072°40'2614.6
2018-Feb-20 20:56N 16°43' E 072°32'914.6
2018-Feb-20 20:21N 16°52' E 072°29'514.4
2018-Feb-20 20:00N 16°56' E 072°28'814.6
2018-Feb-20 19:29N 17°04' E 072°26'714.7
2018-Feb-20 18:59N 17°11' E 072°23'814.9
2018-Feb-20 18:28N 17°18' E 072°21'14014.3
2018-Feb-20 08:39N 19°38' E 072°11'314.0
2018-Feb-20 08:25N 19°41' E 072°11'614.2
2018-Feb-20 08:00N 19°46' E 072°08'1914.6
2018-Feb-20 06:43N 19°59' E 071°53'314.9
2018-Feb-20 06:30N 20°01' E 071°50'1314.7
2018-Feb-20 05:37N 20°08' E 071°39'213.9
2018-Feb-20 05:30N 20°09' E 071°38'914.5
2018-Feb-20 04:53N 20°18' E 071°36'615.6
2018-Feb-20 04:31N 20°24' E 071°36'714.8
2018-Feb-20 04:01N 20°31' E 071°36'7 0.5
2018-Feb-19 13:43N 20°25' E 071°37'312.6
2018-Feb-19 13:30N 20°22' E 071°37'612.8
2018-Feb-19 13:00N 20°16' E 071°37'6010.9
2018-Feb-19 07:31N 19°35' E 072°24'013.1
2018-Feb-19 07:30N 19°35' E 072°24'713.4
2018-Feb-19 07:00N 19°28' E 072°26'817.1
2018-Feb-19 06:30N 19°20' E 072°27'917.3
2018-Feb-19 06:00N 19°12' E 072°28'917.1
2018-Feb-19 05:28N 19°03' E 072°30'816.8
2018-Feb-19 05:00N 18°55' E 072°32'129 2.9
2018-Feb-17 08:31N 16°47' E 072°48'017.6
2018-Feb-17 08:30N 16°47' E 072°48'1117.5
2018-Feb-17 07:54N 16°36' E 072°50'  
2018-Feb-11 16:19N 01°17' E 103°21'618.3
2018-Feb-11 15:58N 01°14' E 103°27'917.2
2018-Feb-11 15:26N 01°12' E 103°36'511.8
2018-Feb-11 15:00N 01°13' E 103°41'612.9
2018-Feb-11 14:30N 01°15' E 103°47'0 0.6
2018-Feb-11 13:57N 01°15' E 103°47'0 0.0
2018-Feb-11 13:30N 01°15' E 103°47'0 0.0
2018-Feb-11 13:00N 01°15' E 103°47'0 0.0
2018-Feb-11 12:30N 01°15' E 103°47'0 0.0
2018-Feb-11 12:00N 01°15' E 103°47'0 0.0
2018-Feb-11 11:30N 01°15' E 103°47'0 0.0
2018-Feb-11 11:00N 01°15' E 103°47'0 0.0
2018-Feb-11 10:30N 01°15' E 103°47'0 0.0
2018-Feb-11 10:00N 01°15' E 103°47'0 0.0
2018-Feb-11 09:24N 01°15' E 103°47'0 0.0
2018-Feb-11 09:00N 01°15' E 103°47'0 0.0
2018-Feb-11 08:30N 01°15' E 103°47'0 0.0
2018-Feb-11 08:00N 01°15' E 103°47'0 0.0
2018-Feb-11 07:27N 01°15' E 103°47'0 0.0
2018-Feb-11 06:42N 01°15' E 103°47'0 0.0
2018-Feb-11 06:27N 01°15' E 103°47'0 0.0
2018-Feb-11 06:00N 01°15' E 103°47'0 0.0
2018-Feb-11 05:24N 01°15' E 103°47'0 0.0
2018-Feb-11 05:00N 01°15' E 103°47'0 0.0
2018-Feb-11 04:30N 01°15' E 103°47'0 0.0
2018-Feb-11 04:00N 01°15' E 103°47'0 0.0
2018-Feb-11 03:30N 01°15' E 103°47'0 0.0
2018-Feb-11 02:57N 01°15' E 103°47'0 0.0
2018-Feb-11 02:27N 01°15' E 103°47'0 0.6
2018-Feb-11 02:00N 01°15' E 103°47'4 7.4
2018-Feb-11 01:31N 01°12' E 103°50'  
Track history (hours):
 
Tides and Currents Weather Stations Pressure Air Temp Water Temp Dewpoint Dewpoint Depression Visibility Wind Speed Wind Dir Waves Ship Positions

Thuringia

Last reported at 2018-Feb-21 01:07 UTC. Time now 2018-Feb-22 16:58 UTC.
Position N 15°44' E 072°51'.

Length 260 m; draft 8.1 m.

Type: Ship. MMSI: 636016073.

Date/timePositionNaut miles runAvg speedWind from/ knotsBaromVisibWave heightAir tempDewpointWater temp
2018-Feb-21 01:07N 15°44' E 072°51'214.9
2018-Feb-21 00:59N 15°46' E 072°51'3415.0
2018-Feb-20 22:44N 16°18' E 072°40'2614.6
2018-Feb-20 20:56N 16°43' E 072°32'914.6
2018-Feb-20 20:21N 16°52' E 072°29'514.4
2018-Feb-20 20:00N 16°56' E 072°28'814.6
2018-Feb-20 19:29N 17°04' E 072°26'714.7
2018-Feb-20 18:59N 17°11' E 072°23'814.9
2018-Feb-20 18:28N 17°18' E 072°21'14014.3
2018-Feb-20 08:39N 19°38' E 072°11'314.0
2018-Feb-20 08:25N 19°41' E 072°11'614.2
2018-Feb-20 08:00N 19°46' E 072°08'1914.6
2018-Feb-20 06:43N 19°59' E 071°53'314.9
2018-Feb-20 06:30N 20°01' E 071°50'1314.7
2018-Feb-20 05:37N 20°08' E 071°39'213.9
2018-Feb-20 05:30N 20°09' E 071°38'914.5
2018-Feb-20 04:53N 20°18' E 071°36'615.6
2018-Feb-20 04:31N 20°24' E 071°36'714.8
2018-Feb-20 04:01N 20°31' E 071°36'7 0.5
2018-Feb-19 13:43N 20°25' E 071°37'312.6
2018-Feb-19 13:30N 20°22' E 071°37'612.8
2018-Feb-19 13:00N 20°16' E 071°37'6010.9
2018-Feb-19 07:31N 19°35' E 072°24'013.1
2018-Feb-19 07:30N 19°35' E 072°24'713.4
2018-Feb-19 07:00N 19°28' E 072°26'817.1
2018-Feb-19 06:30N 19°20' E 072°27'917.3
2018-Feb-19 06:00N 19°12' E 072°28'917.1
2018-Feb-19 05:28N 19°03' E 072°30'816.8
2018-Feb-19 05:00N 18°55' E 072°32'129 2.9
2018-Feb-17 08:31N 16°47' E 072°48'017.6
2018-Feb-17 08:30N 16°47' E 072°48'1117.5
2018-Feb-17 07:54N 16°36' E 072°50'  
2018-Feb-11 16:19N 01°17' E 103°21'618.3
2018-Feb-11 15:58N 01°14' E 103°27'917.2
2018-Feb-11 15:26N 01°12' E 103°36'511.8
2018-Feb-11 15:00N 01°13' E 103°41'612.9
2018-Feb-11 14:30N 01°15' E 103°47'0 0.6
2018-Feb-11 13:57N 01°15' E 103°47'0 0.0
2018-Feb-11 13:30N 01°15' E 103°47'0 0.0
2018-Feb-11 13:00N 01°15' E 103°47'0 0.0
2018-Feb-11 12:30N 01°15' E 103°47'0 0.0
2018-Feb-11 12:00N 01°15' E 103°47'0 0.0
2018-Feb-11 11:30N 01°15' E 103°47'0 0.0
2018-Feb-11 11:00N 01°15' E 103°47'0 0.0
2018-Feb-11 10:30N 01°15' E 103°47'0 0.0
2018-Feb-11 10:00N 01°15' E 103°47'0 0.0
2018-Feb-11 09:24N 01°15' E 103°47'0 0.0
2018-Feb-11 09:00N 01°15' E 103°47'0 0.0
2018-Feb-11 08:30N 01°15' E 103°47'0 0.0
2018-Feb-11 08:00N 01°15' E 103°47'0 0.0
2018-Feb-11 07:27N 01°15' E 103°47'0 0.0
2018-Feb-11 06:42N 01°15' E 103°47'0 0.0
2018-Feb-11 06:27N 01°15' E 103°47'0 0.0
2018-Feb-11 06:00N 01°15' E 103°47'0 0.0
2018-Feb-11 05:24N 01°15' E 103°47'0 0.0
2018-Feb-11 05:00N 01°15' E 103°47'0 0.0
2018-Feb-11 04:30N 01°15' E 103°47'0 0.0
2018-Feb-11 04:00N 01°15' E 103°47'0 0.0
2018-Feb-11 03:30N 01°15' E 103°47'0 0.0
2018-Feb-11 02:57N 01°15' E 103°47'0 0.0
2018-Feb-11 02:27N 01°15' E 103°47'0 0.6
2018-Feb-11 02:00N 01°15' E 103°47'4 7.4
2018-Feb-11 01:31N 01°12' E 103°50'  

Dump ship's entire track history